Have a Safe July 4th! 

Flight Track Log - Related Links

Times and Time Zones

All times are in EDT time to prevent confusion due to time zone crossing. See the N730C flight status page for this flight to view local times or setup timezone preferences in your user account.

Time Position Orientation Groundspeed Altitude Reporting Facility
EDT Latitude Longitude Course Direction KTS MPH feet Rate Location/Type
Sun 08:33:38 AM 33.9833 -84.0000 292° West 107 123 2,600  Level Atlanta TRACON
Sun 08:34:38 AM 34.0167 -84.0333 320° Northwest 123 142 3,400 842 Climbing Atlanta TRACON
Sun 08:35:32 AM 34.0333 -84.0500 320° Northwest 129 148 4,200 850 Climbing Atlanta TRACON
Sun 08:36:38 AM 34.0667 -84.0833 320° Northwest 136 157 5,100 810 Climbing Atlanta TRACON
Sun 08:37:38 AM 34.1000 -84.1000 338° Northwest 135 155 5,900 774 Climbing Atlanta TRACON
Sun 08:38:42 AM 34.1322 -84.1292 323° Northwest 134 154 6,700 726 Climbing Atlanta Center
Sun 08:39:00 AM 34.0773 -84.2486 292° West  Level FlightAware Approximate
Sun 08:39:42 AM 34.1636 -84.1517 329° Northwest 134 154 7,400  Level Atlanta Center
Sun 08:40:42 AM 34.1928 -84.1819 319° Northwest 134 154 8,000 300 Climbing Atlanta Center
Sun 08:41:42 AM 34.2200 -84.1944 339° North 134 154 8,000 50 Level Atlanta Center
Sun 08:42:42 AM 34.2636 -84.2322 324° Northwest 175 201 8,100 50 Climbing Atlanta Center
Sun 08:43:42 AM 34.3033 -84.2625 328° Northwest 170 196 8,100  Level Atlanta Center
Sun 08:44:42 AM 34.3428 -84.2903 330° Northwest 170 196 8,100 -50 Level Atlanta Center
Sun 08:45:42 AM 34.3889 -84.2981 352° North 165 190 8,000  Descending Atlanta Center
Sun 08:46:42 AM 34.4283 -84.3133 342° North 165 190 8,100  Climbing Atlanta Center
Sun 08:47:42 AM 34.4806 -84.3286 346° North 165 190 8,000 -50 Descending Atlanta Center
Sun 08:48:42 AM 34.5264 -84.3414 347° North 165 190 8,000  Level Atlanta Center
Sun 08:49:42 AM 34.5639 -84.3517 347° North 165 190 8,000  Level Atlanta Center
Sun 08:50:42 AM 34.6139 -84.3744 339° North 170 196 8,000 50 Level Atlanta Center
Sun 08:51:42 AM 34.6578 -84.3897 344° North 165 190 8,100 50 Climbing Atlanta Center
Sun 08:52:42 AM 34.6994 -84.4000 349° North 160 184 8,100  Level Atlanta Center
Sun 08:54:00 AM 34.7542 -84.4173 345° North  Level FlightAware Approximate
Sun 08:54:42 AM 34.7850 -84.4308 345° North 165 190 8,100  Level Atlanta Center
Sun 08:55:42 AM 34.8289 -84.4436 347° North 160 184 8,100  Level Atlanta Center
Sun 08:56:42 AM 34.8747 -84.4592 344° North 167 192 8,100 -50 Level Atlanta Center
Sun 08:57:42 AM 34.9164 -84.4719 346° North 167 192 8,000 -50 Descending Atlanta Center
Sun 08:58:42 AM 34.9581 -84.4875 343° North 167 192 8,000  Level Atlanta Center
Sun 08:59:42 AM 35.0017 -84.5053 342° North 167 192 8,000  Level Atlanta Center
Sun 09:00:42 AM 35.0456 -84.5183 346° North 167 192 8,000  Level Atlanta Center
Sun 09:01:42 AM 35.0892 -84.5339 344° North 167 192 8,000  Level Atlanta Center
Sun 09:02:42 AM 35.1331 -84.5492 344° North 167 192 8,000  Level Atlanta Center
Sun 09:04:00 AM 35.1880 -84.5654 346° North  Level FlightAware Approximate
Sun 09:05:54 AM 35.2769 -84.5958 346° North 172 198 8,000  Level Atlanta Center
Sun 09:06:54 AM 35.3186 -84.6089 346° North 172 198 8,000  Level Atlanta Center
Sun 09:07:54 AM 35.3622 -84.6244 344° North 172 198 8,000  Level Atlanta Center
Sun 09:08:54 AM 35.4122 -84.6428 343° North 605 696 8,000  Level Atlanta Center
Sun 09:09:54 AM 35.4539 -84.6558 346° North 366 421 8,000  Level Atlanta Center
Sun 09:10:54 AM 35.4975 -84.6714 344° North 222 255 8,000  Level Atlanta Center
Sun 09:11:54 AM 35.5433 -84.6844 347° North 195 224 8,000  Level Atlanta Center
Sun 09:12:54 AM 35.5872 -84.7003 344° North 179 206 8,000  Level Atlanta Center
Sun 09:13:54 AM 35.6331 -84.7158 345° North 166 191 8,000  Level Atlanta Center
Sun 09:14:54 AM 35.6789 -84.7289 347° North 166 191 8,000  Level Atlanta Center
Sun 09:15:54 AM 35.7247 -84.7472 342° North 166 191 8,000  Level Atlanta Center
Sun 09:16:54 AM 35.7683 -84.7606 346° North 166 191 8,000  Level Atlanta Center
Sun 09:17:54 AM 35.8119 -84.7761 344° North 166 191 8,000  Level Atlanta Center
Sun 09:18:54 AM 35.8578 -84.7919 344° North 166 191 8,000  Level Atlanta Center
Sun 09:19:54 AM 35.9078 -84.8103 343° North 166 191 8,000  Level Atlanta Center
Sun 09:20:54 AM 35.9556 -84.8236 347° North 166 191 8,000  Level Atlanta Center
Sun 09:21:54 AM 35.9994 -84.8394 344° North 166 191 8,000  Level Atlanta Center
Sun 09:24:14 AM 36.1008 -84.8722 345° North 167 192 8,000  Level Indianapolis Center
Sun 09:25:15 AM 36.1450 -84.8875 344° North 165 190 8,000  Level Indianapolis Center
Sun 09:26:17 AM 36.1953 -84.9056 344° North 158 182 8,000  Level Indianapolis Center
Sun 09:27:19 AM 36.2364 -84.9186 346° North 154 177 8,000  Level Indianapolis Center
Sun 09:28:21 AM 36.2797 -84.9336 344° North 159 183 8,000  Level Indianapolis Center
Sun 09:29:22 AM 36.3222 -84.9486 344° North 158 182 8,000  Level Indianapolis Center
Sun 09:30:24 AM 36.3647 -84.9625 345° North 158 182 8,000  Level Indianapolis Center
Sun 09:31:26 AM 36.4064 -84.9769 344° North 156 180 8,000  Level Indianapolis Center
Sun 09:32:28 AM 36.4489 -84.9919 344° North 158 182 8,000  Level Indianapolis Center
Sun 09:33:29 AM 36.4989 -85.0097 344° North 156 180 8,000  Level Indianapolis Center
Sun 09:34:31 AM 36.5400 -85.0239 345° North 155 178 8,000  Level Indianapolis Center
Sun 09:35:33 AM 36.5825 -85.0386 344° North 158 182 8,000  Level Indianapolis Center
Sun 09:36:35 AM 36.6228 -85.0514 346° North 151 174 8,000  Level Indianapolis Center
Sun 09:37:37 AM 36.6653 -85.0675 343° North 156 180 8,000  Level Indianapolis Center
Sun 09:38:38 AM 36.7053 -85.0808 345° North 151 174 8,000  Level Indianapolis Center
Sun 09:39:40 AM 36.7481 -85.0947 345° North 156 180 8,000  Level Indianapolis Center
Sun 09:40:42 AM 36.7969 -85.1142 342° North 153 176 8,000  Level Indianapolis Center
Sun 09:41:44 AM 36.8386 -85.1267 346° North 155 178 8,000  Level Indianapolis Center
Sun 09:42:46 AM 36.8786 -85.1422 343° North 151 174 8,000  Level Indianapolis Center
Sun 09:43:48 AM 36.9169 -85.1611 338° Northwest 150 173 8,000 -145 Level Indianapolis Center
Sun 09:44:50 AM 36.9506 -85.1919 324° Northwest 148 170 7,700 -439 Descending Indianapolis Center
Sun 09:45:51 AM 36.9900 -85.2228 328° Northwest 160 184 7,100 -341 Descending Indianapolis Center
Sun 09:46:53 AM 37.0278 -85.2528 328° Northwest 163 188 7,000 -48 Descending Indianapolis Center
Sun 09:47:55 AM 37.0719 -85.2878 328° Northwest 159 183 7,000  Level Indianapolis Center
Sun 09:48:57 AM 37.1064 -85.3167 326° Northwest 154 177 7,000  Level Indianapolis Center
Sun 09:49:59 AM 37.1419 -85.3442 328° Northwest 153 176 7,000  Level Indianapolis Center
Sun 09:51:01 AM 37.1778 -85.3703 330° Northwest 150 173 7,000  Level Indianapolis Center
Sun 09:52:03 AM 37.2136 -85.3967 330° Northwest 149 171 7,000  Level Indianapolis Center
Sun 09:53:05 AM 37.2483 -85.4247 327° Northwest 149 171 7,000  Level Indianapolis Center
Sun 09:54:07 AM 37.2861 -85.4533 329° Northwest 147 169 7,000  Level Indianapolis Center
Sun 09:55:09 AM 37.3206 -85.4806 328° Northwest 147 169 7,000  Level Indianapolis Center
Sun 09:56:11 AM 37.3594 -85.5119 327° Northwest 148 170 7,000  Level Indianapolis Center
Sun 09:57:13 AM 37.3908 -85.5383 326° Northwest 150 173 7,000  Level Indianapolis Center
Sun 09:58:15 AM 37.4319 -85.5722 327° Northwest 149 171 7,000  Level Indianapolis Center
Sun 09:59:17 AM 37.4683 -85.5992 330° Northwest 149 171 7,000  Level Indianapolis Center
Sun 10:00:19 AM 37.5047 -85.6269 329° Northwest 149 171 7,000  Level Indianapolis Center
Sun 10:01:21 AM 37.5403 -85.6544 328° Northwest 150 173 7,000  Level Indianapolis Center
Sun 10:02:23 AM 37.5761 -85.6825 328° Northwest 150 173 7,000 -339 Level Indianapolis Center
Sun 10:03:25 AM 37.6122 -85.7119 327° Northwest 152 175 6,300 -484 Descending Indianapolis Center
Sun 10:04:27 AM 37.6531 -85.7417 330° Northwest 163 188 6,000 -145 Descending Indianapolis Center
Sun 10:05:29 AM 37.6953 -85.7769 327° Northwest 156 180 6,000  Level Indianapolis Center
Sun 10:06:31 AM 37.7308 -85.8033 330° Northwest 149 171 6,000  Level Indianapolis Center
Sun 10:07:33 AM 37.7661 -85.8325 327° Northwest 150 173 6,000  Level Indianapolis Center
Sun 10:08:35 AM 37.8011 -85.8614 327° Northwest 150 173 6,000  Level Indianapolis Center
Sun 10:09:37 AM 37.8378 -85.8894 329° Northwest 152 175 6,000  Level Indianapolis Center
Sun 10:10:39 AM 37.8728 -85.9183 327° Northwest 152 175 6,000  Level Indianapolis Center
Sun 10:11:41 AM 37.9075 -85.9475 326° Northwest 150 173 6,000  Level Indianapolis Center
Sun 10:12:43 AM 37.9503 -85.9811 328° Northwest 150 173 6,000  Level Indianapolis Center
Sun 10:13:45 AM 37.9858 -86.0089 328° Northwest 150 173 6,000  Level Indianapolis Center
Sun 10:14:47 AM 38.0206 -86.0375 327° Northwest 149 171 6,000  Level Indianapolis Center
Sun 10:15:49 AM 38.0553 -86.0653 328° Northwest 148 170 6,000  Level Indianapolis Center
Sun 10:16:51 AM 38.0911 -86.0942 328° Northwest 150 173 6,000  Level Indianapolis Center
Sun 10:17:53 AM 38.1267 -86.1225 328° Northwest 150 173 6,000  Level Indianapolis Center
Sun 10:18:56 AM 38.1614 -86.1503 328° Northwest 149 171 6,000  Level Indianapolis Center
Sun 10:19:58 AM 38.2033 -86.1842 328° Northwest 149 171 6,000  Level Indianapolis Center
Sun 10:21:00 AM 38.2369 -86.2128 326° Northwest 147 169 6,000  Level Indianapolis Center
Sun 10:22:02 AM 38.2719 -86.2400 329° Northwest 146 168 6,000  Level Indianapolis Center
Sun 10:23:04 AM 38.3053 -86.2675 327° Northwest 145 167 6,000  Level Indianapolis Center
Sun 10:24:06 AM 38.3400 -86.2939 329° Northwest 144 166 6,000  Level Indianapolis Center
Sun 10:25:08 AM 38.3744 -86.3231 326° Northwest 147 169 6,000  Level Indianapolis Center
Sun 10:26:10 AM 38.4086 -86.3511 327° Northwest 147 169 6,000  Level Indianapolis Center
Sun 10:27:12 AM 38.4500 -86.3858 327° Northwest 147 169 6,000  Level Indianapolis Center
Sun 10:28:14 AM 38.4847 -86.4142 327° Northwest 148 170 6,000  Level Indianapolis Center
Sun 10:29:16 AM 38.5186 -86.4417 328° Northwest 146 168 6,000  Level Indianapolis Center
Sun 10:30:18 AM 38.5539 -86.4703 328° Northwest 148 170 6,000  Level Indianapolis Center
Sun 10:31:20 AM 38.5883 -86.4986 327° Northwest 148 170 6,000  Level Indianapolis Center
Sun 10:32:22 AM 38.6225 -86.5269 327° Northwest 146 168 6,000  Level Indianapolis Center
Sun 10:33:24 AM 38.6644 -86.5600 328° Northwest 147 169 6,000  Level Indianapolis Center
Sun 10:34:26 AM 38.6989 -86.5892 327° Northwest 148 170 6,000  Level Indianapolis Center
Sun 10:35:28 AM 38.7339 -86.6183 327° Northwest 148 170 6,000  Level Indianapolis Center
Sun 10:36:30 AM 38.7683 -86.6453 329° Northwest 146 168 6,000 -145 Level Indianapolis Center
Sun 10:37:32 AM 38.8031 -86.6744 327° Northwest 147 169 5,700 -532 Descending Indianapolis Center
Sun 10:38:34 AM 38.8414 -86.7064 327° Northwest 157 181 4,900 -774 Descending Indianapolis Center
Sun 10:39:36 AM 38.8833 -86.7406 328° Northwest 165 190 4,100 -439 Descending Indianapolis Center
Sun 10:40:37 AM 38.9250 -86.7758 327° Northwest 161 185 4,000  Descending Indianapolis Center
Sun 10:41:39 AM 38.9597 -86.8047 327° Northwest 153 176 4,100  Climbing Indianapolis Center
Sun 10:42:41 AM 38.9950 -86.8336 328° Northwest 150 173 4,000 -48 Descending Indianapolis Center
Sun 10:43:43 AM 39.0292 -86.8622 327° Northwest 147 169 4,000 -48 Level Indianapolis Center
Sun 10:44:45 AM 39.0631 -86.8903 327° Northwest 146 168 3,900  Descending Indianapolis Center
Sun 10:45:47 AM 39.0964 -86.9181 327° Northwest 143 165 4,000 48 Climbing Indianapolis Center
Sun 10:46:49 AM 39.1308 -86.9469 327° Northwest 145 167 4,000  Level Indianapolis Center
Sun 10:47:51 AM 39.1742 -86.9825 328° Northwest 149 171 4,000  Level Indianapolis Center
Sun 10:48:53 AM 39.2094 -87.0114 328° Northwest 151 174 4,000  Level Indianapolis Center
Sun 10:49:55 AM 39.2442 -87.0400 327° Northwest 150 173 4,000  Level Indianapolis Center
Sun 10:50:56 AM 39.2775 -87.0681 327° Northwest 148 170 4,000  Level Indianapolis Center
Sun 10:51:58 AM 39.3128 -87.0975 327° Northwest 148 170 4,000  Level Indianapolis Center
Sun 10:53:01 AM 39.3472 -87.1267 327° Northwest 148 170 4,000  Level Indianapolis Center
Sun 10:54:02 AM 39.3817 -87.1561 327° Northwest 148 170 4,000  Level Indianapolis Center
Sun 10:55:04 AM 39.4228 -87.1908 327° Northwest 147 169 4,000  Level Indianapolis Center
Sun 10:56:06 AM 39.4544 -87.2183 326° Northwest 143 165 4,000  Level Indianapolis Center
Sun 10:57:07 AM 39.4886 -87.2461 328° Northwest 144 166 4,000 -49 Level Indianapolis Center
Sun 10:58:09 AM 39.5275 -87.2658 339° North 148 170 3,900  Descending Indianapolis Center
Sun 10:59:11 AM 39.5669 -87.2853 339° North 151 174 4,000 48 Climbing Indianapolis Center
Sun 11:00:13 AM 39.6064 -87.3058 338° Northwest 152 175 4,000  Level Indianapolis Center
Sun 11:01:15 AM 39.6508 -87.3286 338° Northwest 149 171 4,000  Level Indianapolis Center
Sun 11:02:17 AM 39.6892 -87.3475 339° North 148 170 4,000  Level Indianapolis Center
Sun 11:03:19 AM 39.7275 -87.3678 338° Northwest 148 170 4,000  Level Indianapolis Center
Sun 11:04:21 AM 39.7706 -87.3883 340° North 148 170 4,000  Level Indianapolis Center
Sun 11:05:22 AM 39.8053 -87.4078 337° Northwest 150 173 4,000  Level Indianapolis Center
Sun 11:06:24 AM 39.8453 -87.4269 340° North 150 173 4,000  Level Indianapolis Center
Sun 11:07:26 AM 39.8847 -87.4453 340° North 151 174 4,000  Level Indianapolis Center
Sun 11:08:28 AM 39.9256 -87.4669 338° Northwest 150 173 4,000  Level Indianapolis Center
Sun 11:09:30 AM 39.9664 -87.4881 338° Northwest 150 173 4,000  Level Indianapolis Center
Sun 11:11:00 AM 40.0169 -87.5168 336° Northwest  Level FlightAware Approximate
Sun 11:15:56 AM 40.2053 -87.6117 340° North 145 167 4,000  Level Chicago Center
Sun 11:16:58 AM 40.2450 -87.6325 338° Northwest 147 169 4,000  Level Chicago Center
Sun 11:18:00 AM 40.3015 -87.6573 340° North  Level FlightAware Approximate
Sun 11:18:00 AM 40.2831 -87.6506 340° North 149 171 4,000  Level Chicago Center
Sun 11:19:00 AM 40.3425 -87.6764 340° North  Level FlightAware Approximate
Sun 11:19:02 AM 40.3228 -87.6714 338° Northwest 146 168 4,000  Level Chicago Center
Sun 11:20:00 AM 40.3835 -87.6955 340° North  Level FlightAware Approximate
Sun 11:20:05 AM 40.3628 -87.6867 344° North 145 167 4,000  Level Chicago Center
Sun 11:21:00 AM 40.4244 -87.7146 340° North  Level FlightAware Approximate
Sun 11:21:07 AM 40.3864 -87.7325 304° West 146 168 4,000  Level Chicago Center
Sun 11:22:09 AM 40.4039 -87.7719 300° West 144 166 6,000 968 Climbing Chicago Center
Sun 11:23:11 AM 40.4292 -87.8161 307° West 128 147 6,000  Level Chicago Center
Sun 11:24:13 AM 40.4483 -87.8564 302° West 128 147 6,000 -97 Level Chicago Center
Sun 11:25:15 AM 40.4719 -87.8961 308° West 126 145 5,800  Descending Chicago Center
Sun 11:26:17 AM 40.5081 -87.9164 337° Northwest 145 167 6,000 480 Climbing Chicago Center
Sun 11:27:20 AM 40.5508 -87.9453 333° Northwest 145 167 6,800 484 Climbing Chicago Center
Sun 11:28:21 AM 40.5833 -87.9703 330° Northwest 142 163 7,000 146 Climbing Chicago Center
Sun 11:29:23 AM 40.6172 -87.9950 331° Northwest 140 161 7,100 48 Climbing Chicago Center
Sun 11:30:25 AM 40.6533 -88.0222 330° Northwest 143 165 7,100  Level Chicago Center
Sun 11:31:27 AM 40.6894 -88.0483 331° Northwest 146 168 7,100  Level Chicago Center
Sun 11:32:29 AM 40.7253 -88.0731 332° Northwest 146 168 7,100  Level Chicago Center
Sun 11:33:31 AM 40.7678 -88.1044 331° Northwest 146 168 7,100  Level Chicago Center
Sun 11:34:34 AM 40.8025 -88.1294 331° Northwest 144 166 7,100  Level Chicago Center
Sun 11:35:36 AM 40.8367 -88.1553 330° Northwest 144 166 7,100  Level Chicago Center
Sun 11:36:38 AM 40.8703 -88.1797 331° Northwest 142 163 7,100  Level Chicago Center
Sun 11:37:40 AM 40.9044 -88.2053 331° Northwest 141 162 7,100  Level Chicago Center
Sun 11:38:42 AM 40.9392 -88.2297 332° Northwest 141 162 7,100  Level Chicago Center
Sun 11:39:44 AM 40.9792 -88.2603 330° Northwest 140 161 7,100 -48 Level Chicago Center
Sun 11:40:46 AM 41.0125 -88.2847 331° Northwest 139 160 7,000 -48 Descending Chicago Center
Sun 11:41:48 AM 41.0458 -88.3081 332° Northwest 137 158 7,000  Level Chicago Center
Sun 11:42:50 AM 41.0786 -88.3333 330° Northwest 137 158 7,000  Level Chicago Center
Sun 11:43:52 AM 41.1114 -88.3572 331° Northwest 136 157 7,000  Level Chicago Center
Sun 11:44:54 AM 41.1458 -88.3836 330° Northwest 138 159 7,000  Level Chicago Center
Sun 11:45:56 AM 41.1886 -88.4150 331° Northwest 141 162 7,000  Level Chicago Center
Sun 11:46:59 AM 41.2236 -88.4408 331° Northwest 143 165 7,000  Level Chicago Center
Sun 11:48:01 AM 41.2581 -88.4667 331° Northwest 143 165 7,000  Level Chicago Center
Sun 11:49:03 AM 41.2922 -88.4919 331° Northwest 142 163 7,000  Level Chicago Center
Sun 11:50:05 AM 41.3278 -88.5183 331° Northwest 143 165 7,000  Level Chicago Center
Sun 11:51:07 AM 41.3644 -88.5461 330° Northwest 146 168 7,000  Level Chicago Center
Sun 11:52:09 AM 41.4067 -88.5775 331° Northwest 146 168 7,000  Level Chicago Center
Sun 11:53:11 AM 41.4342 -88.5978 331° Northwest 145 167 7,000  Level Chicago Center
Sun 11:54:13 AM 41.4758 -88.6297 330° Northwest 144 166 7,000  Level Chicago Center
Sun 11:55:15 AM 41.5011 -88.6367 348° North 127 146 7,000  Level Chicago Center
Sun 11:56:17 AM 41.5422 -88.6728 327° Northwest 185 213 7,000  Level Chicago Center
Sun 11:57:19 AM 41.5808 -88.7042 329° Northwest 165 190 7,000  Level Chicago Center
Sun 11:58:22 AM 41.6211 -88.7403 326° Northwest 152 175 7,000  Level Chicago Center
Sun 11:59:23 AM 41.6550 -88.7639 333° Northwest 147 169 7,000  Level Chicago Center
Sun 12:00:26 PM 41.6875 -88.7856 334° Northwest 139 160 7,000  Level Chicago Center
Sun 12:01:28 PM 41.7225 -88.8125 330° Northwest 141 162 7,000  Level Chicago Center
Sun 12:02:30 PM 41.7572 -88.8381 331° Northwest 142 163 7,000  Level Chicago Center
Sun 12:03:32 PM 41.7992 -88.8744 327° Northwest 149 171 7,000  Level Chicago Center
Sun 12:04:34 PM 41.8353 -88.9003 332° Northwest 150 173 7,000  Level Chicago Center
Sun 12:06:00 PM 41.8891 -88.9400 331° Northwest  Level FlightAware Approximate
Sun 12:06:38 PM 41.9083 -88.9592 331° Northwest 152 175 7,000  Level Chicago Center
Sun 12:07:40 PM 41.9436 -88.9858 331° Northwest 150 173 7,000  Level Chicago Center
Sun 12:08:42 PM 41.9869 -89.0150 333° Northwest 149 171 7,000  Level Chicago Center
Sun 12:09:44 PM 42.0239 -89.0442 330° Northwest 151 174 7,000 -387 Level Chicago Center
Sun 12:10:46 PM 42.0692 -89.0397 North 169 194 6,200 -629 Descending Chicago Center
Sun 12:11:48 PM 42.1083 -89.0136 26° Northeast 167 192 5,700 -528 Descending Chicago Center
Sun 12:12:51 PM 42.1528 -89.0083 North 163 188 5,100 -276 Descending Chicago Center
Sun 12:14:00 PM 42.1746 -89.0679 296° West  Level FlightAware Approximate
Sun 12:14:42 PM 42.2372 -88.9881 296° West 134 154 4,900  Level Chicago Center
Sun 12:15:45 PM 42.2778 -88.9747 14° North 149 171 5,000 48 Climbing Chicago Center
Sun 12:16:47 PM 42.3161 -88.9672 North 149 171 5,000 968 Level Chicago Center
Sun 12:17:49 PM 42.3561 -88.9464 21° North 147 169 7,000  Climbing Chicago Center
Sun 12:18:51 PM 42.4044 -88.9403 North 152 175 5,000 -1,016 Descending Chicago Center
Sun 12:19:53 PM 42.4486 -88.9289 11° North 152 175 4,900 -48 Descending Chicago Center
Sun 12:20:55 PM 42.4894 -88.9164 13° North 152 175 4,900  Level Chicago Center
Sun 12:21:57 PM 42.5306 -88.9044 12° North 151 174 4,900  Level Chicago Center
Sun 12:22:59 PM 42.5717 -88.8933 11° North 150 173 4,900  Level Chicago Center
Sun 12:24:01 PM 42.6131 -88.8825 11° North 150 173 4,900  Level Chicago Center
Sun 12:25:03 PM 42.6542 -88.8711 12° North 151 174 4,900  Level Chicago Center
Sun 12:26:06 PM 42.7022 -88.8561 13° North 151 174 4,900  Level Chicago Center
Sun 12:27:08 PM 42.7433 -88.8442 12° North 151 174 4,900  Level Chicago Center
Sun 12:28:10 PM 42.7847 -88.8333 11° North 151 174 4,900  Level Chicago Center
Sun 12:29:12 PM 42.8261 -88.8217 12° North 151 174 4,900  Level Chicago Center
Sun 12:30:14 PM 42.8647 -88.8108 12° North 151 174 4,900 -97 Level Chicago Center
Sun 12:31:16 PM 42.9142 -88.7961 12° North 149 171 4,700 -532 Descending Chicago Center
Sun 12:32:18 PM 42.9583 -88.7853 10° North 156 180 3,800 -823 Descending Chicago Center
Sun 12:33:20 PM 42.9939 -88.7728 14° North 157 181 3,000 -774 Descending Chicago Center

Login

Don't have an account? Register now (free) for customized features, flight alerts, and more!